createdAt,value
2022-12-11T00:00:43.660Z,72.05
2022-12-11T00:03:16.125Z,71.53
2022-12-11T00:05:46.522Z,71.44
2022-12-11T00:08:17.342Z,72.08
2022-12-11T00:10:51.361Z,71.81
2022-12-11T00:13:20.565Z,71.91
2022-12-11T00:15:49.717Z,72.02
2022-12-11T00:18:18.943Z,71.76
2022-12-11T00:20:48.271Z,71.83
2022-12-11T00:23:19.095Z,71.90
2022-12-11T00:25:50.109Z,71.83
2022-12-11T00:28:19.864Z,71.91
2022-12-11T00:30:49.692Z,71.79
2022-12-11T00:33:19.529Z,71.46
2022-12-11T00:35:49.778Z,71.64
2022-12-11T00:38:22.915Z,71.83
2022-12-11T00:40:52.218Z,71.57
2022-12-11T00:43:21.364Z,71.72
2022-12-11T00:45:50.616Z,71.35
2022-12-11T00:48:19.822Z,71.18
2022-12-11T00:50:49.200Z,71.54
2022-12-11T00:53:18.426Z,71.42
2022-12-11T00:55:49.056Z,71.53
2022-12-11T00:58:18.246Z,71.37
2022-12-11T01:00:48.789Z,71.72
2022-12-11T01:03:19.134Z,71.48
2022-12-11T01:05:55.258Z,71.86
2022-12-11T01:08:24.517Z,71.17
2022-12-11T01:11:03.904Z,71.73
2022-12-11T01:13:33.115Z,71.38
2022-12-11T01:16:02.349Z,71.58
2022-12-11T01:18:31.556Z,71.50
2022-12-11T01:21:00.668Z,71.47
2022-12-11T01:23:29.907Z,71.53
2022-12-11T01:26:06.085Z,71.83
2022-12-11T01:28:36.475Z,71.56
2022-12-11T01:31:10.693Z,71.45
2022-12-11T01:33:40.355Z,71.79
2022-12-11T01:36:11.488Z,71.60
2022-12-11T01:38:40.661Z,71.92
2022-12-11T01:41:12.272Z,71.65
2022-12-11T01:44:00.020Z,71.67
2022-12-11T01:46:30.276Z,71.66
2022-12-11T01:49:00.946Z,71.57
2022-12-11T01:51:33.378Z,71.66
2022-12-11T01:54:08.327Z,71.63
2022-12-11T01:56:41.555Z,71.69
2022-12-11T01:59:12.071Z,71.78
2022-12-11T02:01:46.189Z,71.70
2022-12-11T02:04:16.519Z,71.43
2022-12-11T02:06:48.581Z,71.88
2022-12-11T02:09:20.507Z,71.65
2022-12-11T02:11:58.805Z,71.51
2022-12-11T02:14:34.539Z,71.56
2022-12-11T02:17:05.880Z,71.63
2022-12-11T02:19:55.288Z,71.47
2022-12-11T02:22:32.565Z,71.26
2022-12-11T02:25:11.683Z,71.67
2022-12-11T02:27:47.635Z,71.42
2022-12-11T02:30:19.565Z,71.72
2022-12-11T02:32:55.449Z,71.27
2022-12-11T02:35:28.681Z,71.66
2022-12-11T02:38:03.848Z,71.60
2022-12-11T02:40:37.057Z,71.29
2022-12-11T02:43:10.052Z,71.51
2022-12-11T02:45:42.847Z,71.63
2022-12-11T02:48:13.757Z,71.59
2022-12-11T02:50:48.160Z,71.38
2022-12-11T02:53:20.469Z,71.39
2022-12-11T02:55:54.110Z,71.72
2022-12-11T02:58:27.380Z,71.60
2022-12-11T03:00:58.192Z,71.85
2022-12-11T03:03:27.639Z,71.65
2022-12-11T03:05:57.249Z,71.75
2022-12-11T03:08:26.843Z,71.34
2022-12-11T03:10:55.986Z,71.48
2022-12-11T03:13:26.067Z,71.51
2022-12-11T03:16:10.110Z,71.58
2022-12-11T03:18:46.774Z,71.57
2022-12-11T03:21:23.393Z,71.72
2022-12-11T03:24:00.009Z,71.64
2022-12-11T03:26:30.820Z,71.82
2022-12-11T03:29:04.411Z,71.34
2022-12-11T03:31:40.980Z,71.38
2022-12-11T03:34:16.153Z,71.59
2022-12-11T03:36:47.643Z,71.69
2022-12-11T03:39:20.830Z,71.53
2022-12-11T03:41:52.863Z,71.48
2022-12-11T03:44:23.395Z,71.15
2022-12-11T03:46:57.025Z,71.52
2022-12-11T03:49:32.281Z,71.67
2022-12-11T03:52:04.551Z,71.46
2022-12-11T03:54:34.290Z,71.34
2022-12-11T03:57:06.130Z,71.15
2022-12-11T03:59:36.413Z,71.27
2022-12-11T04:02:11.389Z,71.37
2022-12-11T04:04:42.130Z,71.14
2022-12-11T04:07:11.634Z,70.99
2022-12-11T04:09:40.849Z,70.85
2022-12-11T04:12:10.102Z,71.34
2022-12-11T04:14:56.060Z,71.15
2022-12-11T04:17:43.810Z,71.25
2022-12-11T04:20:30.421Z,70.88
2022-12-11T04:23:16.723Z,70.92
2022-12-11T04:25:45.935Z,70.78
2022-12-11T04:28:15.219Z,70.78
2022-12-11T04:30:50.900Z,70.83
2022-12-11T04:33:21.147Z,70.65
2022-12-11T04:35:50.378Z,70.97
2022-12-11T04:38:19.592Z,70.70
2022-12-11T04:40:48.738Z,70.24
2022-12-11T04:43:17.896Z,71.00
2022-12-11T04:45:47.174Z,70.63
2022-12-11T04:48:16.428Z,71.07
2022-12-11T04:50:47.106Z,70.26
2022-12-11T04:53:16.384Z,70.38
2022-12-11T04:55:45.567Z,70.32
2022-12-11T04:58:14.889Z,69.76
2022-12-11T05:00:44.602Z,70.54
2022-12-11T05:03:13.811Z,70.30
2022-12-11T05:05:43.166Z,70.31
2022-12-11T05:08:13.956Z,70.29
2022-12-11T05:10:49.970Z,69.83
2022-12-11T05:13:19.408Z,69.85
2022-12-11T05:15:48.686Z,70.29
2022-12-11T05:18:17.936Z,70.18
2022-12-11T05:20:49.434Z,69.92
2022-12-11T05:23:20.161Z,69.71
2022-12-11T05:25:54.436Z,69.65
2022-12-11T05:28:26.785Z,69.31
2022-12-11T05:31:01.796Z,69.48
2022-12-11T05:33:31.879Z,70.11
2022-12-11T05:36:02.372Z,69.75
2022-12-11T05:38:32.981Z,69.91
2022-12-11T05:41:03.810Z,69.82
2022-12-11T05:43:36.073Z,69.97
2022-12-11T05:46:09.896Z,69.24
2022-12-11T05:48:39.760Z,69.67
2022-12-11T05:51:12.318Z,69.35
2022-12-11T05:53:44.130Z,69.18
2022-12-11T05:56:15.231Z,69.46
2022-12-11T05:58:46.423Z,69.42
2022-12-11T06:01:18.749Z,69.73
2022-12-11T06:03:48.261Z,69.35
2022-12-11T06:06:18.254Z,69.51
2022-12-11T06:08:51.668Z,69.48
2022-12-11T06:11:24.115Z,69.17
2022-12-11T06:13:54.379Z,68.93
2022-12-11T06:16:24.393Z,69.16
2022-12-11T06:18:57.160Z,69.23
2022-12-11T06:21:29.960Z,69.31
2022-12-11T06:24:02.800Z,69.13
2022-12-11T06:26:32.494Z,69.55
2022-12-11T06:29:01.711Z,68.93
2022-12-11T06:31:31.028Z,69.50
2022-12-11T06:34:00.248Z,69.42
2022-12-11T06:36:29.436Z,69.12
2022-12-11T06:39:00.261Z,68.51
2022-12-11T06:41:29.463Z,69.30
2022-12-11T06:43:58.768Z,69.16
2022-12-11T06:46:27.963Z,68.93
2022-12-11T06:48:57.205Z,68.85
2022-12-11T06:51:26.544Z,69.03
2022-12-11T06:53:57.000Z,68.92
2022-12-11T06:56:27.830Z,69.07
2022-12-11T06:59:00.586Z,68.86
2022-12-11T07:01:32.268Z,68.99
2022-12-11T07:04:02.333Z,68.64
2022-12-11T07:06:32.054Z,68.75
2022-12-11T07:09:01.299Z,69.02
2022-12-11T07:11:31.926Z,68.52
2022-12-11T07:14:01.650Z,68.83
2022-12-11T07:16:30.918Z,68.79
2022-12-11T07:19:01.225Z,68.75
2022-12-11T07:21:30.433Z,68.62
2022-12-11T07:23:59.717Z,68.60
2022-12-11T07:26:30.186Z,68.77
2022-12-11T07:29:01.599Z,68.39
2022-12-11T07:31:32.634Z,68.71
2022-12-11T07:34:03.540Z,68.91
2022-12-11T07:36:33.542Z,69.10
2022-12-11T07:39:03.930Z,69.35
2022-12-11T07:41:35.265Z,68.65
2022-12-11T07:44:06.574Z,69.03
2022-12-11T07:46:36.410Z,68.55
2022-12-11T07:49:07.601Z,68.76
2022-12-11T07:51:37.934Z,69.05
2022-12-11T07:54:15.342Z,68.67
2022-12-11T07:56:52.817Z,68.56
2022-12-11T07:59:24.481Z,68.85
2022-12-11T08:01:53.759Z,68.93
2022-12-11T08:04:22.904Z,68.82
2022-12-11T08:06:51.986Z,68.45
2022-12-11T08:09:23.069Z,69.08
2022-12-11T08:11:52.439Z,68.53
2022-12-11T08:14:23.556Z,68.64
2022-12-11T08:16:52.797Z,68.98
2022-12-11T08:19:21.985Z,68.67
2022-12-11T08:21:51.405Z,68.67
2022-12-11T08:24:21.387Z,68.51
2022-12-11T08:26:50.807Z,69.08
2022-12-11T08:29:19.968Z,68.68
2022-12-11T08:31:50.664Z,68.80
2022-12-11T08:34:19.912Z,68.95
2022-12-11T08:36:49.058Z,68.93
2022-12-11T08:39:18.184Z,69.05
2022-12-11T08:41:47.526Z,69.53
2022-12-11T08:44:17.177Z,68.74
2022-12-11T08:46:46.500Z,68.81
2022-12-11T08:49:17.950Z,69.33
2022-12-11T08:51:47.250Z,69.14
2022-12-11T08:54:16.519Z,69.00
2022-12-11T08:56:45.668Z,68.85
2022-12-11T08:59:14.807Z,69.13
2022-12-11T09:01:44.028Z,69.05
2022-12-11T09:04:13.252Z,69.52
2022-12-11T09:06:43.928Z,69.24
2022-12-11T09:09:13.254Z,69.55
2022-12-11T09:11:42.940Z,69.31
2022-12-11T09:14:12.199Z,69.64
2022-12-11T09:16:42.271Z,69.06
2022-12-11T09:19:18.169Z,69.31
2022-12-11T09:21:48.999Z,69.08
2022-12-11T09:24:18.592Z,69.45
2022-12-11T09:26:47.790Z,69.60
2022-12-11T09:29:17.087Z,69.45
2022-12-11T09:31:47.312Z,69.63
2022-12-11T09:34:16.490Z,69.23
2022-12-11T09:36:46.000Z,69.69
2022-12-11T09:39:17.770Z,69.85
2022-12-11T09:41:57.478Z,69.70
2022-12-11T09:44:45.024Z,69.86
2022-12-11T09:47:22.390Z,69.49
2022-12-11T09:49:55.677Z,69.74
2022-12-11T09:52:31.272Z,69.78
2022-12-11T09:55:05.111Z,70.23
2022-12-11T09:57:50.897Z,69.46
2022-12-11T10:00:30.683Z,69.81
2022-12-11T10:03:21.172Z,69.69
2022-12-11T10:05:58.384Z,69.93
2022-12-11T10:08:40.562Z,69.76
2022-12-11T10:11:31.200Z,70.00
2022-12-11T10:14:08.593Z,69.90
2022-12-11T10:16:42.204Z,69.76
2022-12-11T10:19:18.906Z,69.83
2022-12-11T10:21:49.948Z,69.92
2022-12-11T10:24:57.978Z,69.91
2022-12-11T10:27:24.010Z,69.73
2022-12-11T10:30:03.839Z,69.98
2022-12-11T10:32:44.403Z,70.25
2022-12-11T10:35:22.395Z,69.97
2022-12-11T10:37:51.833Z,70.04
2022-12-11T10:40:24.076Z,69.87
2022-12-11T10:42:57.937Z,70.14
2022-12-11T10:45:27.388Z,70.17
2022-12-11T10:48:30.521Z,70.16
2022-12-11T10:51:03.385Z,70.61
2022-12-11T10:54:07.344Z,70.13
2022-12-11T10:56:40.821Z,70.53
2022-12-11T10:59:25.040Z,70.34
2022-12-11T11:02:04.545Z,70.06
2022-12-11T11:04:37.312Z,70.35
2022-12-11T11:07:26.776Z,70.41
2022-12-11T11:10:16.113Z,70.30
2022-12-11T11:13:14.429Z,70.43
2022-12-11T11:15:45.409Z,70.48
2022-12-11T11:18:35.909Z,70.25
2022-12-11T11:21:39.006Z,70.78
2022-12-11T11:24:17.222Z,70.76
2022-12-11T11:27:17.927Z,70.60
2022-12-11T11:33:07.010Z,70.79
2022-12-11T11:38:38.014Z,70.55
2022-12-11T11:41:17.403Z,70.50
2022-12-11T11:43:49.105Z,70.55
2022-12-11T11:46:22.286Z,70.50
2022-12-11T11:49:00.786Z,70.33
2022-12-11T11:51:36.381Z,70.68
2022-12-11T11:54:37.001Z,70.70
2022-12-11T11:57:15.793Z,70.61
2022-12-11T11:59:49.658Z,70.68
2022-12-11T12:02:20.943Z,70.49
2022-12-11T12:04:52.404Z,70.30
2022-12-11T12:07:32.657Z,69.95
2022-12-11T12:10:10.239Z,70.50
2022-12-11T12:12:48.943Z,70.50
2022-12-11T12:15:27.812Z,70.78
2022-12-11T12:17:59.269Z,70.24
2022-12-11T12:20:44.890Z,70.46
2022-12-11T12:23:37.115Z,70.90
2022-12-11T12:26:14.429Z,70.75
2022-12-11T12:28:52.384Z,70.59
2022-12-11T12:31:55.188Z,70.59
2022-12-11T12:35:13.473Z,69.93
2022-12-11T12:37:58.342Z,70.62
2022-12-11T12:40:34.482Z,70.71
2022-12-11T12:43:24.917Z,70.23
2022-12-11T12:46:01.365Z,70.43
2022-12-11T12:48:31.257Z,70.24
2022-12-11T12:51:00.790Z,70.52
2022-12-11T12:53:36.352Z,70.69
2022-12-11T12:56:07.511Z,70.34
2022-12-11T12:58:44.350Z,70.96
2022-12-11T13:01:19.719Z,70.78
2022-12-11T13:03:55.848Z,71.00
2022-12-11T13:06:38.268Z,70.70
2022-12-11T13:09:19.483Z,70.94
2022-12-11T13:11:52.479Z,70.90
2022-12-11T13:14:30.167Z,71.09
2022-12-11T13:17:26.423Z,70.95
2022-12-11T13:20:15.589Z,71.01
2022-12-11T13:22:53.664Z,71.09
2022-12-11T13:25:28.411Z,70.75
2022-12-11T13:28:07.847Z,71.11
2022-12-11T13:30:37.112Z,71.23
2022-12-11T13:33:09.383Z,71.42
2022-12-11T13:35:39.138Z,71.14
2022-12-11T13:38:17.513Z,71.30
2022-12-11T13:40:54.527Z,71.39
2022-12-11T13:43:29.097Z,71.37
2022-12-11T13:46:01.376Z,70.87
2022-12-11T13:48:36.686Z,71.38
2022-12-11T13:51:08.296Z,71.23
2022-12-11T13:53:37.532Z,71.51
2022-12-11T13:56:10.070Z,71.63
2022-12-11T13:58:41.468Z,71.30
2022-12-11T14:01:14.720Z,71.37
2022-12-11T14:03:50.664Z,71.29
2022-12-11T14:06:20.666Z,71.40
2022-12-11T14:08:54.809Z,71.51
2022-12-11T14:11:28.398Z,71.42
2022-12-11T14:13:59.826Z,71.51
2022-12-11T14:16:29.856Z,71.49
2022-12-11T14:19:04.973Z,70.97
2022-12-11T14:21:34.820Z,71.38
2022-12-11T14:24:07.011Z,71.62
2022-12-11T14:26:39.308Z,71.45
2022-12-11T14:29:08.961Z,71.22
2022-12-11T14:31:42.990Z,71.79
2022-12-11T14:34:19.628Z,71.51
2022-12-11T14:36:50.318Z,71.71
2022-12-11T14:39:24.404Z,71.72
2022-12-11T14:41:59.902Z,71.59
2022-12-11T14:44:33.545Z,71.70
2022-12-11T14:47:06.154Z,71.77
2022-12-11T14:49:44.689Z,71.79
2022-12-11T14:52:19.357Z,71.82
2022-12-11T14:54:53.544Z,71.26
2022-12-11T14:57:28.805Z,71.86
2022-12-11T14:59:59.081Z,71.32
2022-12-11T15:02:32.759Z,71.56
2022-12-11T15:05:18.582Z,71.28
2022-12-11T15:07:59.322Z,71.63
2022-12-11T15:10:35.923Z,71.61
2022-12-11T15:13:08.275Z,71.45
2022-12-11T15:15:46.674Z,71.74
2022-12-11T15:18:22.945Z,71.50
2022-12-11T15:20:55.560Z,71.55
2022-12-11T15:23:25.035Z,71.74
2022-12-11T15:25:58.473Z,71.47
2022-12-11T15:28:35.105Z,71.31
2022-12-11T15:31:07.018Z,71.44
2022-12-11T15:33:47.284Z,71.54
2022-12-11T15:36:32.341Z,71.54
2022-12-11T15:39:01.582Z,71.55
2022-12-11T15:41:33.810Z,71.20
2022-12-11T15:44:06.416Z,70.94
2022-12-11T15:46:38.599Z,71.31
2022-12-11T15:49:14.361Z,71.30
2022-12-11T15:51:43.568Z,71.44
2022-12-11T15:54:13.022Z,71.03
2022-12-11T15:56:42.239Z,70.82
2022-12-11T15:59:13.704Z,70.99
2022-12-11T16:01:43.190Z,71.24
2022-12-11T16:04:12.568Z,71.13
2022-12-11T16:06:45.734Z,71.07
2022-12-11T16:09:14.958Z,71.08
2022-12-11T16:11:44.300Z,70.88
2022-12-11T16:14:14.913Z,70.73
2022-12-11T16:16:44.075Z,70.84
2022-12-11T16:19:13.318Z,71.15
2022-12-11T16:21:42.536Z,70.83
2022-12-11T16:24:11.756Z,71.10
2022-12-11T16:26:41.153Z,70.84
2022-12-11T16:29:10.409Z,71.25
2022-12-11T16:31:41.120Z,71.08
2022-12-11T16:34:10.339Z,71.04
2022-12-11T16:36:39.850Z,71.15
2022-12-11T16:39:09.093Z,70.98
2022-12-11T16:41:38.394Z,70.93
2022-12-11T16:44:08.363Z,71.19
2022-12-11T16:46:37.613Z,70.83
2022-12-11T16:49:08.387Z,71.05
2022-12-11T16:51:38.561Z,71.06
2022-12-11T16:54:08.299Z,70.82
2022-12-11T16:56:37.556Z,70.96
2022-12-11T16:59:07.213Z,70.73
2022-12-11T17:01:37.057Z,70.65
2022-12-11T17:04:07.888Z,70.46
2022-12-11T17:06:37.104Z,70.38
2022-12-11T17:09:07.635Z,70.82
2022-12-11T17:11:36.827Z,70.31
2022-12-11T17:14:06.044Z,70.54
2022-12-11T17:16:35.209Z,69.95
2022-12-11T17:19:07.674Z,70.14
2022-12-11T17:21:39.418Z,70.66
2022-12-11T17:24:09.007Z,70.65
2022-12-11T17:26:38.683Z,70.33
2022-12-11T17:29:07.900Z,70.93
2022-12-11T17:31:37.106Z,70.66
2022-12-11T17:34:06.912Z,70.52
2022-12-11T17:36:37.953Z,70.00
2022-12-11T17:39:07.182Z,70.16
2022-12-11T17:41:36.569Z,70.69
2022-12-11T17:44:05.860Z,69.98
2022-12-11T17:46:35.135Z,70.67
2022-12-11T17:49:04.606Z,70.24
2022-12-11T17:51:33.879Z,70.19
2022-12-11T17:54:04.771Z,70.49
2022-12-11T17:56:36.676Z,70.37
2022-12-11T17:59:06.300Z,70.22
2022-12-11T18:01:35.663Z,70.77
2022-12-11T18:04:05.335Z,70.39
2022-12-11T18:06:34.532Z,70.16
2022-12-11T18:09:07.144Z,70.41
2022-12-11T18:11:36.695Z,69.82
2022-12-11T18:14:05.868Z,70.68
2022-12-11T18:16:38.489Z,70.11
2022-12-11T18:19:08.899Z,70.29
2022-12-11T18:21:43.243Z,70.20
2022-12-11T18:24:14.650Z,70.11
2022-12-11T18:26:44.564Z,69.71
2022-12-11T18:29:13.791Z,69.73
2022-12-11T18:31:43.538Z,69.70
2022-12-11T18:34:13.836Z,70.22
2022-12-11T18:36:44.011Z,70.01
2022-12-11T18:39:14.636Z,70.05
2022-12-11T18:41:43.779Z,69.93
2022-12-11T18:44:12.988Z,69.88
2022-12-11T18:46:42.255Z,70.26
2022-12-11T18:49:11.416Z,69.88
2022-12-11T18:51:40.639Z,70.10
2022-12-11T18:54:10.150Z,69.53
2022-12-11T18:56:42.133Z,70.37
2022-12-11T18:59:15.078Z,69.92
2022-12-11T19:01:44.423Z,70.02
2022-12-11T19:04:13.640Z,70.10
2022-12-11T19:06:42.863Z,70.22
2022-12-11T19:09:14.428Z,69.96
2022-12-11T19:11:45.835Z,69.41
2022-12-11T19:14:16.065Z,70.12
2022-12-11T19:16:47.353Z,69.53
2022-12-11T19:19:19.383Z,69.51
2022-12-11T19:21:48.615Z,69.67
2022-12-11T19:24:20.139Z,69.74
2022-12-11T19:26:50.955Z,69.82
2022-12-11T19:29:23.252Z,69.23
2022-12-11T19:31:53.076Z,69.60
2022-12-11T19:34:22.208Z,69.45
2022-12-11T19:36:51.697Z,69.61
2022-12-11T19:39:22.119Z,69.54
2022-12-11T19:41:52.825Z,69.95
2022-12-11T19:44:22.039Z,69.76
2022-12-11T19:46:51.290Z,69.51
2022-12-11T19:49:20.438Z,69.09
2022-12-11T19:51:49.872Z,69.43
2022-12-11T19:54:19.991Z,69.97
2022-12-11T19:56:49.349Z,69.36
2022-12-11T19:59:20.020Z,69.56
2022-12-11T20:01:49.854Z,69.19
2022-12-11T20:04:20.466Z,69.21
2022-12-11T20:06:50.185Z,69.27
2022-12-11T20:09:19.735Z,69.59
2022-12-11T20:11:49.156Z,69.77
2022-12-11T20:14:23.402Z,69.39
2022-12-11T20:17:11.048Z,69.48
2022-12-11T20:19:42.154Z,69.19
2022-12-11T20:22:11.501Z,69.01
2022-12-11T20:24:40.954Z,69.44
2022-12-11T20:27:10.509Z,69.34
2022-12-11T20:29:41.379Z,69.54
2022-12-11T20:32:11.693Z,69.33
2022-12-11T20:34:41.736Z,69.49
2022-12-11T20:37:10.905Z,69.00
2022-12-11T20:39:40.183Z,68.86
2022-12-11T20:42:11.439Z,68.87
2022-12-11T20:44:47.348Z,69.54
2022-12-11T20:47:20.168Z,68.68
2022-12-11T20:49:49.712Z,69.30
2022-12-11T20:52:19.025Z,69.01
2022-12-11T20:54:49.265Z,68.90
2022-12-11T20:57:18.405Z,69.14
2022-12-11T20:59:49.994Z,69.07
2022-12-11T21:02:19.294Z,69.07
2022-12-11T21:04:48.453Z,68.83
2022-12-11T21:07:17.817Z,68.92
2022-12-11T21:09:47.005Z,68.77
2022-12-11T21:12:16.196Z,69.29
2022-12-11T21:14:45.336Z,68.83
2022-12-11T21:17:16.039Z,69.18
2022-12-11T21:19:45.119Z,68.72
2022-12-11T21:22:14.300Z,68.75
2022-12-11T21:24:43.481Z,69.06
2022-12-11T21:27:12.803Z,68.97
2022-12-11T21:29:42.005Z,68.72
2022-12-11T21:32:11.247Z,68.46
2022-12-11T21:34:41.941Z,68.75
2022-12-11T21:37:11.109Z,68.71
2022-12-11T21:39:40.290Z,68.78
2022-12-11T21:42:09.426Z,68.97
2022-12-11T21:45:37.532Z,69.01
2022-12-11T21:47:28.189Z,68.51
2022-12-11T21:49:59.881Z,68.79
2022-12-11T21:52:29.099Z,68.58
2022-12-11T21:54:58.399Z,68.68
2022-12-11T21:57:27.632Z,68.71
2022-12-11T21:59:56.804Z,68.88
2022-12-11T22:02:26.108Z,68.38
2022-12-11T22:04:56.294Z,68.25
2022-12-11T22:07:26.929Z,68.46
2022-12-11T22:09:56.117Z,68.57
2022-12-11T22:12:26.991Z,69.00
2022-12-11T22:14:56.222Z,68.81
2022-12-11T22:17:25.506Z,68.23
2022-12-11T22:19:54.762Z,68.61
2022-12-11T22:22:23.867Z,68.64
2022-12-11T22:24:54.601Z,68.68
2022-12-11T22:27:24.203Z,68.62
2022-12-11T22:29:53.432Z,68.88
2022-12-11T22:32:22.580Z,68.71
2022-12-11T22:34:51.719Z,68.66
2022-12-11T22:37:20.837Z,68.70
2022-12-11T22:39:50.121Z,68.71
2022-12-11T22:42:20.856Z,68.32
2022-12-11T22:44:49.987Z,68.30
2022-12-11T22:47:19.149Z,68.20
2022-12-11T22:49:48.368Z,68.24
2022-12-11T22:52:17.598Z,68.12
2022-12-11T22:54:46.831Z,68.12
2022-12-11T22:57:16.919Z,68.51
2022-12-11T22:59:47.680Z,68.28
2022-12-11T23:02:17.264Z,68.56
2022-12-11T23:04:46.541Z,67.98
2022-12-11T23:07:15.694Z,68.50
2022-12-11T23:09:44.841Z,68.22
2022-12-11T23:12:13.965Z,68.38
2022-12-11T23:14:43.258Z,68.47
2022-12-11T23:17:13.945Z,68.32
2022-12-11T23:19:43.136Z,68.08
2022-12-11T23:22:12.701Z,68.53
2022-12-11T23:24:42.280Z,68.20
2022-12-11T23:27:11.913Z,67.81
2022-12-11T23:29:41.231Z,68.31
2022-12-11T23:32:10.482Z,68.33
2022-12-11T23:34:41.301Z,68.46
2022-12-11T23:37:11.165Z,68.39
2022-12-11T23:39:40.449Z,68.05
2022-12-11T23:42:09.846Z,68.36
2022-12-11T23:44:39.086Z,68.06
2022-12-11T23:47:08.582Z,67.88
2022-12-11T23:49:37.832Z,68.07
2022-12-11T23:52:12.122Z,68.18
2022-12-11T23:54:41.368Z,68.36
2022-12-11T23:57:10.623Z,68.14
2022-12-11T23:59:39.804Z,67.74
